Terminal Aerodrome Forecast
Issued by NWS

Home | Current Version | Previous Version | Text Only | Print | Product List | Glossary Off
Versions: 1 2 3 4 5 6 7 8 9 10 11 12 13 14

000
FTUS45 KRIW 011100
TAFCPR
TAF
KCPR 011126Z 0112/0212 02008KT P6SM -SN OVC015
     FM011500 VRB04KT P6SM BKN025
     FM011800 26008KT P6SM FEW025 SCT250
     FM012200 22012G18KT P6SM SCT250
     FM020600 22017G25KT P6SM BKN090=

USA.gov is the U.S. government's official web portal to all federal, state and local government web resources and services.